Terminal Aerodrome Forecast
Issued by NWS

Home | Current Version | Previous Version | Text Only | Print | Product List | Glossary On
Versions: 1 2 3 4 5 6 7 8 9 10 11 12 13 14 15 16 17 18 19 20
262
FTUS41 KBTV 121125
TAFMPV
TAF
KMPV 121125Z 1212/1312 VRB05KT P6SM FEW250
     FM121800 22008KT P6SM BKN040
     FM122200 20009KT P6SM SCT050
     FM130500 17011G20KT P6SM VCSH BKN060
     FM130900 21004KT P6SM VCSH BKN020
     FM131100 29010G18KT P6SM VCSH BKN035=

USA.gov is the U.S. government's official web portal to all federal, state and local government web resources and services.